sensor_id;sensor_type;location;lat;lon;timestamp;P1;durP1;ratioP1;P2;durP2;ratioP2
49221;SDS011;35047;37.588;-122.048;2022-07-30T00:00:58;2.92;;;0.50;;
49221;SDS011;35047;37.588;-122.048;2022-07-30T00:03:25;0.90;;;0.50;;
49221;SDS011;35047;37.588;-122.048;2022-07-30T00:08:19;1.23;;;0.50;;
49221;SDS011;35047;37.588;-122.048;2022-07-30T00:10:49;3.33;;;0.47;;
49221;SDS011;35047;37.588;-122.048;2022-07-30T00:13:17;0.60;;;0.35;;
49221;SDS011;35047;37.588;-122.048;2022-07-30T00:15:43;0.73;;;0.35;;
49221;SDS011;35047;37.588;-122.048;2022-07-30T00:18:11;3.10;;;0.60;;
49221;SDS011;35047;37.588;-122.048;2022-07-30T00:20:38;2.78;;;0.60;;
49221;SDS011;35047;37.588;-122.048;2022-07-30T00:23:05;1.23;;;0.45;;
49221;SDS011;35047;37.588;-122.048;2022-07-30T00:27:59;1.85;;;0.50;;
49221;SDS011;35047;37.588;-122.048;2022-07-30T00:30:25;2.30;;;0.45;;
49221;SDS011;35047;37.588;-122.048;2022-07-30T00:32:52;1.05;;;0.45;;
49221;SDS011;35047;37.588;-122.048;2022-07-30T00:35:19;3.65;;;0.50;;
49221;SDS011;35047;37.588;-122.048;2022-07-30T00:37:45;4.13;;;0.60;;
49221;SDS011;35047;37.588;-122.048;2022-07-30T00:40:12;1.58;;;0.57;;
49221;SDS011;35047;37.588;-122.048;2022-07-30T00:42:43;1.20;;;0.50;;
49221;SDS011;35047;37.588;-122.048;2022-07-30T00:45:11;1.83;;;0.68;;
49221;SDS011;35047;37.588;-122.048;2022-07-30T00:47:40;1.30;;;0.77;;
49221;SDS011;35047;37.588;-122.048;2022-07-30T00:50:07;2.33;;;0.50;;
49221;SDS011;35047;37.588;-122.048;2022-07-30T00:52:36;1.35;;;0.45;;
49221;SDS011;35047;37.588;-122.048;2022-07-30T00:55:03;1.15;;;0.55;;
49221;SDS011;35047;37.588;-122.048;2022-07-30T00:57:31;0.88;;;0.50;;
49221;SDS011;35047;37.588;-122.048;2022-07-30T00:59:58;1.83;;;0.60;;
49221;SDS011;35047;37.588;-122.048;2022-07-30T01:02:25;0.98;;;0.60;;
49221;SDS011;35047;37.588;-122.048;2022-07-30T01:04:53;2.28;;;0.55;;
49221;SDS011;35047;37.588;-122.048;2022-07-30T01:07:20;1.77;;;0.60;;
49221;SDS011;35047;37.588;-122.048;2022-07-30T01:09:46;1.58;;;0.60;;
49221;SDS011;35047;37.588;-122.048;2022-07-30T01:12:15;1.15;;;0.50;;
49221;SDS011;35047;37.588;-122.048;2022-07-30T01:14:45;0.50;;;0.38;;
49221;SDS011;35047;37.588;-122.048;2022-07-30T01:19:38;1.85;;;0.50;;
49221;SDS011;35047;37.588;-122.048;2022-07-30T01:27:59;1.00;;;0.55;;
49221;SDS011;35047;37.588;-122.048;2022-07-30T01:30:39;3.20;;;0.70;;
49221;SDS011;35047;37.588;-122.048;2022-07-30T01:33:12;0.88;;;0.50;;
49221;SDS011;35047;37.588;-122.048;2022-07-30T01:35:41;1.35;;;0.63;;
49221;SDS011;35047;37.588;-122.048;2022-07-30T01:38:11;1.52;;;0.73;;
49221;SDS011;35047;37.588;-122.048;2022-07-30T01:40:41;2.00;;;0.85;;
49221;SDS011;35047;37.588;-122.048;2022-07-30T01:43:09;0.82;;;0.50;;
49221;SDS011;35047;37.588;-122.048;2022-07-30T01:45:36;2.53;;;0.45;;
49221;SDS011;35047;37.588;-122.048;2022-07-30T01:48:04;0.85;;;0.55;;
49221;SDS011;35047;37.588;-122.048;2022-07-30T01:50:34;0.75;;;0.45;;
49221;SDS011;35047;37.588;-122.048;2022-07-30T01:53:03;1.73;;;0.47;;
49221;SDS011;35047;37.588;-122.048;2022-07-30T01:55:35;2.88;;;0.68;;
49221;SDS011;35047;37.588;-122.048;2022-07-30T01:58:05;1.73;;;0.60;;
49221;SDS011;35047;37.588;-122.048;2022-07-30T02:00:35;1.58;;;0.77;;
49221;SDS011;35047;37.588;-122.048;2022-07-30T02:03:04;2.97;;;0.30;;
49221;SDS011;35047;37.588;-122.048;2022-07-30T02:05:34;1.13;;;0.60;;
49221;SDS011;35047;37.588;-122.048;2022-07-30T02:08:05;1.13;;;0.50;;
49221;SDS011;35047;37.588;-122.048;2022-07-30T02:10:36;2.08;;;0.65;;
49221;SDS011;35047;37.588;-122.048;2022-07-30T02:13:11;2.25;;;0.68;;
49221;SDS011;35047;37.588;-122.048;2022-07-30T02:15:45;0.88;;;0.50;;
49221;SDS011;35047;37.588;-122.048;2022-07-30T02:18:31;1.08;;;0.45;;
49221;SDS011;35047;37.588;-122.048;2022-07-30T02:21:03;1.17;;;0.50;;
49221;SDS011;35047;37.588;-122.048;2022-07-30T02:23:34;2.67;;;0.73;;
49221;SDS011;35047;37.588;-122.048;2022-07-30T02:26:07;3.72;;;0.57;;
49221;SDS011;35047;37.588;-122.048;2022-07-30T02:28:40;0.85;;;0.40;;
49221;SDS011;35047;37.588;-122.048;2022-07-30T02:31:10;1.23;;;0.40;;
49221;SDS011;35047;37.588;-122.048;2022-07-30T02:33:39;1.90;;;0.40;;
49221;SDS011;35047;37.588;-122.048;2022-07-30T02:36:08;0.98;;;0.40;;
49221;SDS011;35047;37.588;-122.048;2022-07-30T02:38:36;1.30;;;0.40;;
49221;SDS011;35047;37.588;-122.048;2022-07-30T02:41:06;1.08;;;0.40;;
49221;SDS011;35047;37.588;-122.048;2022-07-30T02:43:34;0.68;;;0.40;;
49221;SDS011;35047;37.588;-122.048;2022-07-30T02:46:02;1.25;;;0.57;;
49221;SDS011;35047;37.588;-122.048;2022-07-30T02:48:30;3.55;;;0.82;;
49221;SDS011;35047;37.588;-122.048;2022-07-30T02:50:58;0.77;;;0.40;;
49221;SDS011;35047;37.588;-122.048;2022-07-30T02:53:27;0.40;;;0.28;;
49221;SDS011;35047;37.588;-122.048;2022-07-30T02:55:55;0.65;;;0.30;;
49221;SDS011;35047;37.588;-122.048;2022-07-30T02:58:24;0.60;;;0.30;;
49221;SDS011;35047;37.588;-122.048;2022-07-30T03:00:53;0.95;;;0.30;;
49221;SDS011;35047;37.588;-122.048;2022-07-30T03:03:22;0.30;;;0.30;;
49221;SDS011;35047;37.588;-122.048;2022-07-30T03:05:54;0.80;;;0.38;;
49221;SDS011;35047;37.588;-122.048;2022-07-30T03:08:22;0.90;;;0.30;;
49221;SDS011;35047;37.588;-122.048;2022-07-30T03:10:50;0.98;;;0.30;;
49221;SDS011;35047;37.588;-122.048;2022-07-30T03:13:21;0.60;;;0.40;;
49221;SDS011;35047;37.588;-122.048;2022-07-30T03:15:49;0.82;;;0.40;;
49221;SDS011;35047;37.588;-122.048;2022-07-30T03:18:18;1.02;;;0.47;;
49221;SDS011;35047;37.588;-122.048;2022-07-30T03:20:46;1.33;;;0.40;;
49221;SDS011;35047;37.588;-122.048;2022-07-30T03:23:16;1.48;;;0.52;;
49221;SDS011;35047;37.588;-122.048;2022-07-30T03:25:49;0.65;;;0.30;;
49221;SDS011;35047;37.588;-122.048;2022-07-30T03:28:22;0.73;;;0.40;;
49221;SDS011;35047;37.588;-122.048;2022-07-30T03:30:50;1.35;;;0.50;;
49221;SDS011;35047;37.588;-122.048;2022-07-30T03:33:18;0.70;;;0.50;;
49221;SDS011;35047;37.588;-122.048;2022-07-30T03:35:46;0.70;;;0.30;;
49221;SDS011;35047;37.588;-122.048;2022-07-30T03:38:15;2.55;;;0.47;;
49221;SDS011;35047;37.588;-122.048;2022-07-30T03:43:09;0.90;;;0.57;;
49221;SDS011;35047;37.588;-122.048;2022-07-30T03:45:37;1.20;;;0.35;;
49221;SDS011;35047;37.588;-122.048;2022-07-30T03:48:08;0.52;;;0.30;;
49221;SDS011;35047;37.588;-122.048;2022-07-30T03:50:36;1.63;;;0.30;;
49221;SDS011;35047;37.588;-122.048;2022-07-30T03:53:04;1.23;;;0.30;;
49221;SDS011;35047;37.588;-122.048;2022-07-30T03:55:31;0.80;;;0.40;;
49221;SDS011;35047;37.588;-122.048;2022-07-30T03:58:00;0.63;;;0.30;;
49221;SDS011;35047;37.588;-122.048;2022-07-30T04:00:27;2.38;;;0.40;;
49221;SDS011;35047;37.588;-122.048;2022-07-30T04:02:55;0.60;;;0.40;;
49221;SDS011;35047;37.588;-122.048;2022-07-30T04:05:22;0.43;;;0.28;;
49221;SDS011;35047;37.588;-122.048;2022-07-30T04:07:50;0.85;;;0.47;;
49221;SDS011;35047;37.588;-122.048;2022-07-30T04:10:16;0.97;;;0.33;;
49221;SDS011;35047;37.588;-122.048;2022-07-30T04:12:42;0.63;;;0.30;;
49221;SDS011;35047;37.588;-122.048;2022-07-30T04:17:50;0.93;;;0.52;;
49221;SDS011;35047;37.588;-122.048;2022-07-30T04:20:25;0.60;;;0.40;;
49221;SDS011;35047;37.588;-122.048;2022-07-30T04:22:56;0.30;;;0.20;;
49221;SDS011;35047;37.588;-122.048;2022-07-30T04:25:23;0.30;;;0.28;;
49221;SDS011;35047;37.588;-122.048;2022-07-30T04:27:51;1.30;;;0.30;;
49221;SDS011;35047;37.588;-122.048;2022-07-30T04:30:19;0.80;;;0.22;;
49221;SDS011;35047;37.588;-122.048;2022-07-30T04:32:47;0.65;;;0.30;;
49221;SDS011;35047;37.588;-122.048;2022-07-30T04:35:14;0.25;;;0.25;;
49221;SDS011;35047;37.588;-122.048;2022-07-30T04:37:40;0.50;;;0.30;;
49221;SDS011;35047;37.588;-122.048;2022-07-30T04:40:08;0.82;;;0.28;;
49221;SDS011;35047;37.588;-122.048;2022-07-30T04:42:34;0.98;;;0.30;;
49221;SDS011;35047;37.588;-122.048;2022-07-30T04:45:01;2.45;;;0.20;;
49221;SDS011;35047;37.588;-122.048;2022-07-30T04:47:28;0.40;;;0.20;;
49221;SDS011;35047;37.588;-122.048;2022-07-30T04:49:56;2.72;;;0.35;;
49221;SDS011;35047;37.588;-122.048;2022-07-30T04:52:24;0.28;;;0.15;;
49221;SDS011;35047;37.588;-122.048;2022-07-30T04:54:54;0.20;;;0.20;;
49221;SDS011;35047;37.588;-122.048;2022-07-30T04:57:24;1.02;;;0.20;;
49221;SDS011;35047;37.588;-122.048;2022-07-30T04:59:53;0.30;;;0.10;;
49221;SDS011;35047;37.588;-122.048;2022-07-30T05:02:20;1.85;;;0.25;;
49221;SDS011;35047;37.588;-122.048;2022-07-30T05:04:50;0.35;;;0.25;;
49221;SDS011;35047;37.588;-122.048;2022-07-30T05:07:19;0.63;;;0.30;;
49221;SDS011;35047;37.588;-122.048;2022-07-30T05:12:13;1.55;;;0.22;;
49221;SDS011;35047;37.588;-122.048;2022-07-30T05:14:40;0.10;;;0.10;;
49221;SDS011;35047;37.588;-122.048;2022-07-30T05:17:06;0.95;;;0.30;;
49221;SDS011;35047;37.588;-122.048;2022-07-30T05:19:33;0.38;;;0.20;;
49221;SDS011;35047;37.588;-122.048;2022-07-30T05:22:00;0.55;;;0.10;;
49221;SDS011;35047;37.588;-122.048;2022-07-30T05:24:26;0.20;;;0.10;;
49221;SDS011;35047;37.588;-122.048;2022-07-30T05:26:54;0.20;;;0.20;;
49221;SDS011;35047;37.588;-122.048;2022-07-30T05:29:21;0.52;;;0.20;;
49221;SDS011;35047;37.588;-122.048;2022-07-30T05:34:14;0.57;;;0.10;;
49221;SDS011;35047;37.588;-122.048;2022-07-30T05:36:42;0.20;;;0.10;;
49221;SDS011;35047;37.588;-122.048;2022-07-30T05:39:09;1.15;;;0.20;;
49221;SDS011;35047;37.588;-122.048;2022-07-30T05:44:04;0.85;;;0.20;;
49221;SDS011;35047;37.588;-122.048;2022-07-30T05:46:30;0.73;;;0.20;;
49221;SDS011;35047;37.588;-122.048;2022-07-30T05:48:58;0.10;;;0.10;;
49221;SDS011;35047;37.588;-122.048;2022-07-30T05:51:24;0.20;;;0.10;;
49221;SDS011;35047;37.588;-122.048;2022-07-30T05:53:51;0.40;;;0.10;;
49221;SDS011;35047;37.588;-122.048;2022-07-30T05:56:18;0.43;;;0.20;;
49221;SDS011;35047;37.588;-122.048;2022-07-30T05:58:45;0.10;;;0.10;;
49221;SDS011;35047;37.588;-122.048;2022-07-30T06:01:12;0.32;;;0.10;;
49221;SDS011;35047;37.588;-122.048;2022-07-30T06:03:38;0.22;;;0.13;;
49221;SDS011;35047;37.588;-122.048;2022-07-30T06:06:06;0.10;;;0.10;;
49221;SDS011;35047;37.588;-122.048;2022-07-30T06:08:33;0.08;;;0.08;;
49221;SDS011;35047;37.588;-122.048;2022-07-30T06:11:00;0.08;;;0.00;;
49221;SDS011;35047;37.588;-122.048;2022-07-30T06:13:26;0.20;;;0.10;;
49221;SDS011;35047;37.588;-122.048;2022-07-30T06:15:53;0.10;;;0.00;;
49221;SDS011;35047;37.588;-122.048;2022-07-30T06:18:20;0.10;;;0.10;;
49221;SDS011;35047;37.588;-122.048;2022-07-30T06:20:46;0.20;;;0.20;;
49221;SDS011;35047;37.588;-122.048;2022-07-30T06:23:15;0.20;;;0.10;;
49221;SDS011;35047;37.588;-122.048;2022-07-30T06:25:42;0.27;;;0.20;;
49221;SDS011;35047;37.588;-122.048;2022-07-30T06:28:08;0.80;;;0.22;;
49221;SDS011;35047;37.588;-122.048;2022-07-30T06:30:35;0.53;;;0.20;;
49221;SDS011;35047;37.588;-122.048;2022-07-30T06:33:01;0.20;;;0.20;;
49221;SDS011;35047;37.588;-122.048;2022-07-30T06:35:28;0.07;;;0.07;;
49221;SDS011;35047;37.588;-122.048;2022-07-30T06:37:55;0.95;;;0.10;;
49221;SDS011;35047;37.588;-122.048;2022-07-30T06:40:22;0.30;;;0.13;;
49221;SDS011;35047;37.588;-122.048;2022-07-30T06:42:49;0.17;;;0.13;;
49221;SDS011;35047;37.588;-122.048;2022-07-30T06:45:15;0.22;;;0.10;;
49221;SDS011;35047;37.588;-122.048;2022-07-30T06:47:43;0.28;;;0.10;;
49221;SDS011;35047;37.588;-122.048;2022-07-30T06:50:09;0.10;;;0.10;;
49221;SDS011;35047;37.588;-122.048;2022-07-30T06:55:03;0.13;;;0.10;;
49221;SDS011;35047;37.588;-122.048;2022-07-30T06:57:30;0.17;;;0.13;;
49221;SDS011;35047;37.588;-122.048;2022-07-30T06:59:56;0.00;;;0.00;;
49221;SDS011;35047;37.588;-122.048;2022-07-30T07:02:24;0.20;;;0.10;;
49221;SDS011;35047;37.588;-122.048;2022-07-30T07:07:17;0.10;;;0.05;;
49221;SDS011;35047;37.588;-122.048;2022-07-30T07:09:44;0.17;;;0.10;;
49221;SDS011;35047;37.588;-122.048;2022-07-30T07:12:11;0.10;;;0.10;;
49221;SDS011;35047;37.588;-122.048;2022-07-30T07:14:38;0.17;;;0.10;;
49221;SDS011;35047;37.588;-122.048;2022-07-30T07:17:04;0.00;;;0.00;;
49221;SDS011;35047;37.588;-122.048;2022-07-30T07:19:32;0.10;;;0.00;;
49221;SDS011;35047;37.588;-122.048;2022-07-30T07:21:58;1.50;;;0.23;;
49221;SDS011;35047;37.588;-122.048;2022-07-30T07:26:51;0.00;;;0.00;;
49221;SDS011;35047;37.588;-122.048;2022-07-30T07:31:46;0.00;;;0.00;;
49221;SDS011;35047;37.588;-122.048;2022-07-30T07:34:14;0.75;;;0.00;;
49221;SDS011;35047;37.588;-122.048;2022-07-30T07:36:40;0.00;;;0.00;;
49221;SDS011;35047;37.588;-122.048;2022-07-30T07:39:07;2.47;;;0.00;;
49221;SDS011;35047;37.588;-122.048;2022-07-30T07:41:36;5.35;;;0.05;;
49221;SDS011;35047;37.588;-122.048;2022-07-30T07:44:04;0.00;;;0.00;;
49221;SDS011;35047;37.588;-122.048;2022-07-30T07:46:32;0.17;;;0.00;;
49221;SDS011;35047;37.588;-122.048;2022-07-30T07:48:59;0.00;;;0.00;;
49221;SDS011;35047;37.588;-122.048;2022-07-30T07:51:25;0.00;;;0.00;;
49221;SDS011;35047;37.588;-122.048;2022-07-30T07:56:19;0.10;;;0.00;;
49221;SDS011;35047;37.588;-122.048;2022-07-30T07:58:46;0.00;;;0.00;;
49221;SDS011;35047;37.588;-122.048;2022-07-30T08:01:18;0.55;;;0.00;;
49221;SDS011;35047;37.588;-122.048;2022-07-30T08:03:46;0.10;;;0.00;;
49221;SDS011;35047;37.588;-122.048;2022-07-30T08:06:13;0.00;;;0.00;;
49221;SDS011;35047;37.588;-122.048;2022-07-30T08:08:40;0.00;;;0.00;;
49221;SDS011;35047;37.588;-122.048;2022-07-30T08:11:06;0.00;;;0.00;;
49221;SDS011;35047;37.588;-122.048;2022-07-30T08:13:33;0.10;;;0.00;;
49221;SDS011;35047;37.588;-122.048;2022-07-30T08:16:02;0.00;;;0.00;;
49221;SDS011;35047;37.588;-122.048;2022-07-30T08:18:29;0.00;;;0.00;;
49221;SDS011;35047;37.588;-122.048;2022-07-30T08:20:55;0.10;;;0.10;;
49221;SDS011;35047;37.588;-122.048;2022-07-30T08:23:22;0.52;;;0.00;;
49221;SDS011;35047;37.588;-122.048;2022-07-30T08:25:49;0.00;;;0.00;;
49221;SDS011;35047;37.588;-122.048;2022-07-30T08:28:17;0.00;;;0.00;;
49221;SDS011;35047;37.588;-122.048;2022-07-30T08:30:43;0.10;;;0.00;;
49221;SDS011;35047;37.588;-122.048;2022-07-30T08:33:11;0.00;;;0.00;;
49221;SDS011;35047;37.588;-122.048;2022-07-30T08:35:37;0.20;;;0.00;;
49221;SDS011;35047;37.588;-122.048;2022-07-30T08:38:04;0.77;;;0.00;;
49221;SDS011;35047;37.588;-122.048;2022-07-30T08:40:32;0.30;;;0.00;;
49221;SDS011;35047;37.588;-122.048;2022-07-30T08:43:01;0.00;;;0.00;;
49221;SDS011;35047;37.588;-122.048;2022-07-30T08:45:31;0.10;;;0.00;;
49221;SDS011;35047;37.588;-122.048;2022-07-30T08:47:58;0.35;;;0.00;;
49221;SDS011;35047;37.588;-122.048;2022-07-30T08:52:54;0.10;;;0.00;;
49221;SDS011;35047;37.588;-122.048;2022-07-30T08:55:21;0.00;;;0.00;;
49221;SDS011;35047;37.588;-122.048;2022-07-30T08:57:49;0.00;;;0.00;;
49221;SDS011;35047;37.588;-122.048;2022-07-30T09:00:16;0.00;;;0.00;;
49221;SDS011;35047;37.588;-122.048;2022-07-30T09:02:45;0.00;;;0.00;;
49221;SDS011;35047;37.588;-122.048;2022-07-30T09:05:12;0.00;;;0.00;;
49221;SDS011;35047;37.588;-122.048;2022-07-30T09:07:39;0.00;;;0.00;;
49221;SDS011;35047;37.588;-122.048;2022-07-30T09:10:07;0.10;;;0.00;;
49221;SDS011;35047;37.588;-122.048;2022-07-30T09:12:36;0.00;;;0.00;;
49221;SDS011;35047;37.588;-122.048;2022-07-30T09:20:32;0.00;;;0.00;;
49221;SDS011;35047;37.588;-122.048;2022-07-30T09:23:03;0.63;;;0.00;;
49221;SDS011;35047;37.588;-122.048;2022-07-30T09:25:41;0.00;;;0.00;;
49221;SDS011;35047;37.588;-122.048;2022-07-30T09:28:10;0.00;;;0.00;;
49221;SDS011;35047;37.588;-122.048;2022-07-30T09:30:44;0.20;;;0.00;;
49221;SDS011;35047;37.588;-122.048;2022-07-30T09:33:32;0.05;;;0.00;;
49221;SDS011;35047;37.588;-122.048;2022-07-30T09:36:10;0.00;;;0.00;;
49221;SDS011;35047;37.588;-122.048;2022-07-30T09:38:43;0.00;;;0.00;;
49221;SDS011;35047;37.588;-122.048;2022-07-30T09:41:17;0.00;;;0.00;;
49221;SDS011;35047;37.588;-122.048;2022-07-30T09:43:50;0.00;;;0.00;;
49221;SDS011;35047;37.588;-122.048;2022-07-30T09:48:44;0.00;;;0.00;;
49221;SDS011;35047;37.588;-122.048;2022-07-30T09:51:12;0.00;;;0.00;;
49221;SDS011;35047;37.588;-122.048;2022-07-30T09:53:53;0.00;;;0.00;;
49221;SDS011;35047;37.588;-122.048;2022-07-30T09:56:27;0.00;;;0.00;;
49221;SDS011;35047;37.588;-122.048;2022-07-30T09:58:55;0.00;;;0.00;;
49221;SDS011;35047;37.588;-122.048;2022-07-30T10:01:22;0.00;;;0.00;;
49221;SDS011;35047;37.588;-122.048;2022-07-30T10:03:49;0.00;;;0.00;;
49221;SDS011;35047;37.588;-122.048;2022-07-30T10:06:15;0.00;;;0.00;;
49221;SDS011;35047;37.588;-122.048;2022-07-30T10:11:20;0.00;;;0.00;;
49221;SDS011;35047;37.588;-122.048;2022-07-30T10:13:55;0.43;;;0.00;;
49221;SDS011;35047;37.588;-122.048;2022-07-30T10:16:27;0.00;;;0.00;;
49221;SDS011;35047;37.588;-122.048;2022-07-30T10:18:55;0.00;;;0.00;;
49221;SDS011;35047;37.588;-122.048;2022-07-30T10:21:25;0.00;;;0.00;;
49221;SDS011;35047;37.588;-122.048;2022-07-30T10:23:53;0.00;;;0.00;;
49221;SDS011;35047;37.588;-122.048;2022-07-30T10:26:20;0.05;;;0.00;;
49221;SDS011;35047;37.588;-122.048;2022-07-30T10:28:47;0.03;;;0.00;;
49221;SDS011;35047;37.588;-122.048;2022-07-30T10:31:15;0.00;;;0.00;;
49221;SDS011;35047;37.588;-122.048;2022-07-30T10:36:11;0.00;;;0.00;;
49221;SDS011;35047;37.588;-122.048;2022-07-30T10:38:39;0.00;;;0.00;;
49221;SDS011;35047;37.588;-122.048;2022-07-30T10:44:08;0.00;;;0.00;;
49221;SDS011;35047;37.588;-122.048;2022-07-30T10:47:02;0.00;;;0.00;;
49221;SDS011;35047;37.588;-122.048;2022-07-30T10:49:30;0.00;;;0.00;;
49221;SDS011;35047;37.588;-122.048;2022-07-30T10:51:57;0.00;;;0.00;;
49221;SDS011;35047;37.588;-122.048;2022-07-30T10:54:40;0.00;;;0.00;;
49221;SDS011;35047;37.588;-122.048;2022-07-30T10:57:11;0.00;;;0.00;;
49221;SDS011;35047;37.588;-122.048;2022-07-30T11:02:20;0.10;;;0.00;;
49221;SDS011;35047;37.588;-122.048;2022-07-30T11:04:48;0.00;;;0.00;;
49221;SDS011;35047;37.588;-122.048;2022-07-30T11:09:50;0.00;;;0.00;;
49221;SDS011;35047;37.588;-122.048;2022-07-30T11:15:23;0.00;;;0.00;;
49221;SDS011;35047;37.588;-122.048;2022-07-30T11:18:22;1.20;;;0.15;;
49221;SDS011;35047;37.588;-122.048;2022-07-30T11:21:32;1.45;;;0.00;;
49221;SDS011;35047;37.588;-122.048;2022-07-30T11:23:42;0.13;;;0.03;;
49221;SDS011;35047;37.588;-122.048;2022-07-30T11:26:45;0.05;;;0.00;;
49221;SDS011;35047;37.588;-122.048;2022-07-30T11:29:03;0.00;;;0.00;;
49221;SDS011;35047;37.588;-122.048;2022-07-30T11:31:34;0.00;;;0.00;;
49221;SDS011;35047;37.588;-122.048;2022-07-30T11:42:26;0.22;;;0.00;;
49221;SDS011;35047;37.588;-122.048;2022-07-30T11:47:50;0.10;;;0.00;;
49221;SDS011;35047;37.588;-122.048;2022-07-30T11:50:22;0.10;;;0.00;;
49221;SDS011;35047;37.588;-122.048;2022-07-30T11:52:53;0.00;;;0.00;;
49221;SDS011;35047;37.588;-122.048;2022-07-30T11:55:35;0.00;;;0.00;;
49221;SDS011;35047;37.588;-122.048;2022-07-30T11:58:09;0.00;;;0.00;;
49221;SDS011;35047;37.588;-122.048;2022-07-30T12:00:50;0.00;;;0.00;;
49221;SDS011;35047;37.588;-122.048;2022-07-30T12:03:20;0.10;;;0.00;;
49221;SDS011;35047;37.588;-122.048;2022-07-30T12:05:48;0.20;;;0.00;;
49221;SDS011;35047;37.588;-122.048;2022-07-30T12:08:15;0.10;;;0.00;;
49221;SDS011;35047;37.588;-122.048;2022-07-30T12:10:42;0.68;;;0.22;;
49221;SDS011;35047;37.588;-122.048;2022-07-30T12:13:20;18.42;;;2.70;;
49221;SDS011;35047;37.588;-122.048;2022-07-30T12:15:47;14.27;;;1.83;;
49221;SDS011;35047;37.588;-122.048;2022-07-30T12:18:22;9.50;;;1.75;;
49221;SDS011;35047;37.588;-122.048;2022-07-30T12:20:54;1.77;;;0.32;;
49221;SDS011;35047;37.588;-122.048;2022-07-30T12:23:26;0.17;;;0.00;;
49221;SDS011;35047;37.588;-122.048;2022-07-30T12:25:54;0.10;;;0.00;;
49221;SDS011;35047;37.588;-122.048;2022-07-30T12:28:22;0.00;;;0.00;;
49221;SDS011;35047;37.588;-122.048;2022-07-30T12:30:50;4.10;;;0.85;;
49221;SDS011;35047;37.588;-122.048;2022-07-30T12:33:19;10.75;;;2.05;;
49221;SDS011;35047;37.588;-122.048;2022-07-30T12:38:15;11.48;;;2.17;;
49221;SDS011;35047;37.588;-122.048;2022-07-30T12:46:13;0.00;;;0.00;;
49221;SDS011;35047;37.588;-122.048;2022-07-30T12:48:52;0.00;;;0.00;;
49221;SDS011;35047;37.588;-122.048;2022-07-30T12:51:26;0.00;;;0.00;;
49221;SDS011;35047;37.588;-122.048;2022-07-30T12:53:59;0.00;;;0.00;;
49221;SDS011;35047;37.588;-122.048;2022-07-30T12:56:38;0.08;;;0.00;;
49221;SDS011;35047;37.588;-122.048;2022-07-30T12:59:18;0.00;;;0.00;;
49221;SDS011;35047;37.588;-122.048;2022-07-30T13:01:45;0.00;;;0.00;;
49221;SDS011;35047;37.588;-122.048;2022-07-30T13:04:14;0.00;;;0.00;;
49221;SDS011;35047;37.588;-122.048;2022-07-30T13:06:41;0.00;;;0.00;;
49221;SDS011;35047;37.588;-122.048;2022-07-30T13:09:18;1.65;;;0.00;;
49221;SDS011;35047;37.588;-122.048;2022-07-30T13:11:45;0.00;;;0.00;;
49221;SDS011;35047;37.588;-122.048;2022-07-30T13:14:13;0.00;;;0.00;;
49221;SDS011;35047;37.588;-122.048;2022-07-30T13:16:41;0.00;;;0.00;;
49221;SDS011;35047;37.588;-122.048;2022-07-30T13:19:09;0.10;;;0.00;;
49221;SDS011;35047;37.588;-122.048;2022-07-30T13:21:38;0.00;;;0.00;;
49221;SDS011;35047;37.588;-122.048;2022-07-30T13:24:06;0.05;;;0.00;;
49221;SDS011;35047;37.588;-122.048;2022-07-30T13:26:35;0.00;;;0.00;;
49221;SDS011;35047;37.588;-122.048;2022-07-30T13:29:02;0.08;;;0.00;;
49221;SDS011;35047;37.588;-122.048;2022-07-30T13:31:29;0.00;;;0.00;;
49221;SDS011;35047;37.588;-122.048;2022-07-30T13:33:55;0.00;;;0.00;;
49221;SDS011;35047;37.588;-122.048;2022-07-30T13:36:22;0.00;;;0.00;;
49221;SDS011;35047;37.588;-122.048;2022-07-30T13:38:49;0.00;;;0.00;;
49221;SDS011;35047;37.588;-122.048;2022-07-30T13:41:16;0.00;;;0.00;;
49221;SDS011;35047;37.588;-122.048;2022-07-30T13:46:09;0.00;;;0.00;;
49221;SDS011;35047;37.588;-122.048;2022-07-30T13:48:36;0.10;;;0.00;;
49221;SDS011;35047;37.588;-122.048;2022-07-30T13:51:04;0.00;;;0.00;;
49221;SDS011;35047;37.588;-122.048;2022-07-30T13:53:32;0.00;;;0.00;;
49221;SDS011;35047;37.588;-122.048;2022-07-30T13:55:58;0.00;;;0.00;;
49221;SDS011;35047;37.588;-122.048;2022-07-30T13:58:25;0.00;;;0.00;;
49221;SDS011;35047;37.588;-122.048;2022-07-30T14:00:52;0.10;;;0.00;;
49221;SDS011;35047;37.588;-122.048;2022-07-30T14:03:19;0.10;;;0.03;;
49221;SDS011;35047;37.588;-122.048;2022-07-30T14:05:47;0.00;;;0.00;;
49221;SDS011;35047;37.588;-122.048;2022-07-30T14:08:13;0.43;;;0.00;;
49221;SDS011;35047;37.588;-122.048;2022-07-30T14:10:40;0.00;;;0.00;;
49221;SDS011;35047;37.588;-122.048;2022-07-30T14:13:08;0.30;;;0.00;;
49221;SDS011;35047;37.588;-122.048;2022-07-30T14:15:35;0.00;;;0.00;;
49221;SDS011;35047;37.588;-122.048;2022-07-30T14:18:03;0.10;;;0.00;;
49221;SDS011;35047;37.588;-122.048;2022-07-30T14:20:29;0.30;;;0.00;;
49221;SDS011;35047;37.588;-122.048;2022-07-30T14:22:56;0.00;;;0.00;;
49221;SDS011;35047;37.588;-122.048;2022-07-30T14:25:22;0.00;;;0.00;;
49221;SDS011;35047;37.588;-122.048;2022-07-30T14:27:49;0.17;;;0.00;;
49221;SDS011;35047;37.588;-122.048;2022-07-30T14:30:16;0.00;;;0.00;;
49221;SDS011;35047;37.588;-122.048;2022-07-30T14:32:44;0.50;;;0.00;;
49221;SDS011;35047;37.588;-122.048;2022-07-30T14:35:10;0.00;;;0.00;;
49221;SDS011;35047;37.588;-122.048;2022-07-30T14:37:37;0.00;;;0.00;;
49221;SDS011;35047;37.588;-122.048;2022-07-30T14:40:05;0.00;;;0.00;;
49221;SDS011;35047;37.588;-122.048;2022-07-30T14:42:35;0.00;;;0.00;;
49221;SDS011;35047;37.588;-122.048;2022-07-30T14:45:04;0.00;;;0.00;;
49221;SDS011;35047;37.588;-122.048;2022-07-30T14:47:32;0.00;;;0.00;;
49221;SDS011;35047;37.588;-122.048;2022-07-30T14:49:59;0.00;;;0.00;;
49221;SDS011;35047;37.588;-122.048;2022-07-30T14:52:27;0.00;;;0.00;;
49221;SDS011;35047;37.588;-122.048;2022-07-30T14:54:53;0.05;;;0.00;;
49221;SDS011;35047;37.588;-122.048;2022-07-30T14:57:21;0.00;;;0.00;;
49221;SDS011;35047;37.588;-122.048;2022-07-30T14:59:47;0.00;;;0.00;;
49221;SDS011;35047;37.588;-122.048;2022-07-30T15:04:41;0.00;;;0.00;;
49221;SDS011;35047;37.588;-122.048;2022-07-30T15:07:07;0.00;;;0.00;;
49221;SDS011;35047;37.588;-122.048;2022-07-30T15:09:34;0.00;;;0.00;;
49221;SDS011;35047;37.588;-122.048;2022-07-30T15:12:01;1.88;;;0.00;;
49221;SDS011;35047;37.588;-122.048;2022-07-30T15:14:27;0.10;;;0.10;;
49221;SDS011;35047;37.588;-122.048;2022-07-30T15:16:55;0.05;;;0.00;;
49221;SDS011;35047;37.588;-122.048;2022-07-30T15:19:22;0.95;;;0.03;;
49221;SDS011;35047;37.588;-122.048;2022-07-30T15:21:49;0.00;;;0.00;;
49221;SDS011;35047;37.588;-122.048;2022-07-30T15:24:15;0.20;;;0.10;;
49221;SDS011;35047;37.588;-122.048;2022-07-30T15:26:42;0.10;;;0.00;;
49221;SDS011;35047;37.588;-122.048;2022-07-30T15:29:08;0.10;;;0.00;;
49221;SDS011;35047;37.588;-122.048;2022-07-30T15:31:35;0.03;;;0.00;;
49221;SDS011;35047;37.588;-122.048;2022-07-30T15:34:02;1.15;;;0.00;;
49221;SDS011;35047;37.588;-122.048;2022-07-30T15:36:29;0.20;;;0.10;;
49221;SDS011;35047;37.588;-122.048;2022-07-30T15:38:56;0.10;;;0.00;;
49221;SDS011;35047;37.588;-122.048;2022-07-30T15:41:22;0.07;;;0.00;;
49221;SDS011;35047;37.588;-122.048;2022-07-30T15:43:50;0.00;;;0.00;;
49221;SDS011;35047;37.588;-122.048;2022-07-30T15:46:17;0.00;;;0.00;;